This is the latest recevied weather packets stored in our database for station/object KE5VT. If no packets are shown the sender has not sent any weather packets the latest 10 day(s).
| Time | Temp. | Humidity | Pressure | Rain* | Wind** | Luminosity | Snow |
|---|---|---|---|---|---|---|---|
| 1777503849 | 25.56° C | 68% | 1003.9 hPa | 0 mm | - | 26 W/m² | - |
| 1777503546 | 25.56° C | 68% | 1003.9 hPa | 0 mm | - | 31 W/m² | - |
| 1777503243 | 25.56° C | 68% | 1004.2 hPa | 0 mm | - | 35 W/m² | - |
| 1777502939 | 25.56° C | 68% | 1004 hPa | 0 mm | - | 44 W/m² | - |
| 1777502637 | 25.56° C | 67% | 1004 hPa | 0 mm | - | 45 W/m² | - |
| 1777502334 | 25.56° C | 67% | 1004 hPa | 0 mm | - | 53 W/m² | - |
| 1777502030 | 25.56° C | 66% | 1004 hPa | 0 mm | - | 71 W/m² | - |
| 1777501727 | 25.56° C | 66% | 1003.9 hPa | 0 mm | - | 48 W/m² | - |
| 1777501425 | 26.67° C | 63% | 1004.3 hPa | 0 mm | - | 46 W/m² | - |
| 1777501122 | 26.67° C | 64% | 1004 hPa | 0 mm | - | 152 W/m² | - |
| 1777500820 | 26.67° C | 64% | 1004 hPa | 0 mm | - | 160 W/m² | - |
| 1777500517 | 26.67° C | 64% | 1004.2 hPa | 0 mm | - | 176 W/m² | - |
| 1777500213 | 26.11° C | 65% | 1004.2 hPa | 0 mm | - | 195 W/m² | - |
| 1777499910 | 26.11° C | 64% | 1004.2 hPa | 0 mm | - | 68 W/m² | - |
| 1777499606 | 26.67° C | 63% | 1004.4 hPa | 0 mm | - | 83 W/m² | - |
| 1777499303 | 27.22° C | 62% | 1004.4 hPa | 0 mm | - | 285 W/m² | - |
| 1777499001 | 26.11° C | 64% | 1004.5 hPa | 0 mm | - | 286 W/m² | - |
| 1777498697 | 26.11° C | 63% | 1004.4 hPa | 0 mm | - | 110 W/m² | - |
| 1777498393 | 26.67° C | 64% | 1004.6 hPa | 0 mm | - | 383 W/m² | - |
| 1777498091 | 26.67° C | 63% | 1004.7 hPa | 0 mm | - | 229 W/m² | - |
| 1777497788 | 26.67° C | 64% | 1004.7 hPa | 0 mm | - | 415 W/m² | - |
| 1777497484 | 26.11° C | 65% | 1004.7 hPa | 0 mm | - | 429 W/m² | - |
| 1777497181 | 25° C | 68% | 1004.7 hPa | 0 mm | - | 109 W/m² | - |
| 1777496877 | 25.56° C | 67% | 1004.8 hPa | 0 mm | - | 112 W/m² | - |
| 1777496574 | 25° C | 67% | 1005.1 hPa | 0 mm | - | 126 W/m² | - |
* Rain latest hour (hover to see other rain measurements)
** Current wind speed in m/s (hover to see current wind gust speed)